Time,TemperatureF,DewpointF,PressureIn,WindDirection,WindDirectionDegrees,WindSpeedMPH,WindSpeedGustMPH,Humidity,HourlyPrecipIn,Conditions,Clouds,dailyrainin,SoftwareType,DateUTC
2013-05-29 00:01:00,70.2,66.4,30.02,SE,141,2.0,3.0,88,0.00,,,0.11,meteohub,2013-05-29 04:01:00,
2013-05-29 00:06:00,70.2,66.4,30.02,SSE,158,0.0,3.0,88,0.00,,,0.00,meteohub,2013-05-29 04:06:00,
2013-05-29 00:11:00,70.2,66.4,30.02,SE,146,0.0,3.0,88,0.00,,,0.00,meteohub,2013-05-29 04:11:00,
2013-05-29 00:17:00,70.2,66.4,30.02,SE,146,1.0,3.0,88,0.00,,,0.00,meteohub,2013-05-29 04:17:00,
2013-05-29 00:22:00,70.2,66.4,30.02,SE,146,1.0,3.0,88,0.00,,,0.00,meteohub,2013-05-29 04:22:00,
2013-05-29 00:27:00,70.2,66.4,30.02,SSE,150,0.0,3.0,88,0.00,,,0.00,meteohub,2013-05-29 04:27:00,
2013-05-29 00:32:00,70.2,66.4,30.02,SE,139,0.0,2.0,88,0.00,,,0.00,meteohub,2013-05-29 04:32:00,
2013-05-29 00:37:00,70.2,66.4,30.02,SSW,205,2.0,2.0,88,0.00,,,0.00,meteohub,2013-05-29 04:37:00,
2013-05-29 00:42:00,70.2,66.4,30.02,SSW,193,2.0,2.0,88,0.00,,,0.00,meteohub,2013-05-29 04:42:00,
2013-05-29 00:47:00,70.2,66.4,30.02,SSE,162,4.0,5.0,88,0.00,,,0.00,meteohub,2013-05-29 04:47:00,
2013-05-29 00:52:00,70.5,66.4,30.02,South,174,1.0,5.0,87,0.00,,,0.00,meteohub,2013-05-29 04:52:00,
2013-05-29 00:57:00,70.7,66.6,30.02,SE,139,0.0,5.0,87,0.00,,,0.00,meteohub,2013-05-29 04:57:00,
2013-05-29 01:02:00,70.7,66.6,30.02,SW,217,0.0,5.0,87,0.00,,,0.00,meteohub,2013-05-29 05:02:00,
2013-05-29 01:07:00,70.5,66.4,30.02,SSW,198,1.0,3.0,87,0.00,,,0.00,meteohub,2013-05-29 05:07:00,
2013-05-29 01:12:00,70.5,66.4,30.02,SW,214,0.0,2.0,87,0.00,,,0.00,meteohub,2013-05-29 05:12:00,
2013-05-29 01:17:00,70.5,66.4,30.02,SW,214,1.0,2.0,87,0.00,,,0.00,meteohub,2013-05-29 05:17:00,
2013-05-29 01:22:00,70.5,66.4,30.02,SW,222,3.0,3.0,87,0.00,,,0.00,meteohub,2013-05-29 05:22:00,
2013-05-29 01:27:00,70.5,66.4,30.02,SSW,193,0.0,4.0,87,0.00,,,0.00,meteohub,2013-05-29 05:27:00,
2013-05-29 01:32:00,70.7,66.6,30.02,South,180,1.0,4.0,87,0.00,,,0.00,meteohub,2013-05-29 05:32:00,
2013-05-29 01:37:00,70.7,66.6,30.02,South,170,2.0,6.0,87,0.00,,,0.00,meteohub,2013-05-29 05:37:00,
2013-05-29 01:42:00,70.5,66.4,30.01,SSW,211,2.0,6.0,87,0.00,,,0.00,meteohub,2013-05-29 05:42:00,
2013-05-29 01:47:00,70.5,66.7,30.01,SSE,163,1.0,6.0,88,0.00,,,0.00,meteohub,2013-05-29 05:47:00,
2013-05-29 01:52:00,70.3,66.6,30.02,SSE,167,2.0,4.0,88,0.00,,,0.00,meteohub,2013-05-29 05:52:00,
2013-05-29 01:57:00,70.3,66.6,30.02,SSW,197,2.0,5.0,88,0.00,,,0.00,meteohub,2013-05-29 05:57:00,
2013-05-29 02:02:00,70.3,66.6,30.01,SSW,205,2.0,5.0,88,0.00,,,0.00,meteohub,2013-05-29 06:02:00,
2013-05-29 02:07:00,70.2,66.4,30.01,SW,215,3.0,6.0,88,0.00,,,0.00,meteohub,2013-05-29 06:07:00,
2013-05-29 02:12:00,70.2,66.4,30.01,SSE,159,0.0,6.0,88,0.00,,,0.00,meteohub,2013-05-29 06:12:00,
2013-05-29 02:17:00,70.0,66.2,30.01,SW,215,0.0,6.0,88,0.00,,,0.00,meteohub,2013-05-29 06:17:00,
2013-05-29 02:22:00,69.8,66.0,30.01,SSW,208,0.0,4.0,88,0.00,,,0.00,meteohub,2013-05-29 06:22:00,
2013-05-29 02:27:00,69.6,65.8,30.01,South,173,0.0,1.0,88,0.00,,,0.00,meteohub,2013-05-29 06:27:00,
2013-05-29 02:32:00,69.6,66.2,30.01,SE,141,0.0,2.0,89,0.00,,,0.00,meteohub,2013-05-29 06:32:00,
2013-05-29 02:37:00,69.4,66.0,30.01,South,172,2.0,3.0,89,0.00,,,0.00,meteohub,2013-05-29 06:37:00,
2013-05-29 02:42:00,69.6,65.8,30.01,South,172,0.0,3.0,88,0.00,,,0.00,meteohub,2013-05-29 06:42:00,
2013-05-29 02:47:00,69.6,65.8,30.01,SSE,163,1.0,4.0,88,0.00,,,0.00,meteohub,2013-05-29 06:47:00,
2013-05-29 02:52:00,69.8,66.0,30.01,SSE,158,2.0,5.0,88,0.00,,,0.00,meteohub,2013-05-29 06:52:00,
2013-05-29 02:57:00,70.0,66.0,30.01,WSW,246,4.0,7.0,87,0.00,,,0.00,meteohub,2013-05-29 06:57:00,
2013-05-29 03:02:00,70.0,66.0,30.01,SE,134,1.0,7.0,87,0.00,,,0.00,meteohub,2013-05-29 07:02:00,
2013-05-29 03:07:00,70.0,66.0,30.01,SSW,197,3.0,7.0,87,0.00,,,0.00,meteohub,2013-05-29 07:07:00,
2013-05-29 03:12:00,70.0,66.0,30.00,South,173,3.0,6.0,87,0.00,,,0.00,meteohub,2013-05-29 07:12:00,
2013-05-29 03:17:00,70.0,66.0,30.00,SSW,200,2.0,5.0,87,0.00,,,0.00,meteohub,2013-05-29 07:17:00,
2013-05-29 03:22:00,70.0,66.0,30.00,ESE,123,2.0,5.0,87,0.00,,,0.00,meteohub,2013-05-29 07:22:00,
2013-05-29 03:27:00,70.0,66.0,30.00,SSW,210,2.0,6.0,87,0.00,,,0.00,meteohub,2013-05-29 07:27:00,
2013-05-29 03:32:00,70.0,66.0,30.01,South,188,1.0,7.0,87,0.00,,,0.00,meteohub,2013-05-29 07:32:00,
2013-05-29 03:37:00,69.8,65.8,30.01,SW,236,3.0,7.0,87,0.00,,,0.00,meteohub,2013-05-29 07:37:00,
2013-05-29 03:42:00,69.8,65.8,30.01,SSW,195,3.0,7.0,87,0.00,,,0.00,meteohub,2013-05-29 07:42:00,
2013-05-29 03:47:00,69.8,65.8,30.01,SSE,167,2.0,6.0,87,0.00,,,0.00,meteohub,2013-05-29 07:47:00,
2013-05-29 03:52:00,69.8,65.8,30.01,SSW,200,2.0,5.0,87,0.00,,,0.00,meteohub,2013-05-29 07:52:00,
2013-05-29 03:57:00,69.8,65.8,30.01,SW,223,2.0,5.0,87,0.00,,,0.00,meteohub,2013-05-29 07:57:00,
2013-05-29 04:02:00,69.8,65.8,30.01,SE,132,2.0,5.0,87,0.00,,,0.00,meteohub,2013-05-29 08:02:00,
2013-05-29 04:07:00,69.8,65.8,30.01,SW,228,2.0,7.0,87,0.00,,,0.00,meteohub,2013-05-29 08:07:00,
2013-05-29 04:12:00,69.8,65.5,30.01,South,189,2.0,7.0,86,0.00,,,0.00,meteohub,2013-05-29 08:12:00,
2013-05-29 04:17:00,69.6,65.3,30.01,SW,217,2.0,7.0,86,0.00,,,0.00,meteohub,2013-05-29 08:17:00,
2013-05-29 04:22:00,69.6,65.3,30.01,South,179,4.0,5.0,86,0.00,,,0.00,meteohub,2013-05-29 08:22:00,
2013-05-29 04:27:00,69.6,65.3,30.01,West,269,2.0,5.0,86,0.00,,,0.00,meteohub,2013-05-29 08:27:00,
2013-05-29 04:32:00,69.6,65.7,30.01,SSE,163,3.0,8.0,87,0.00,,,0.00,meteohub,2013-05-29 08:32:00,
2013-05-29 04:37:00,69.4,65.5,30.01,South,186,3.0,8.0,87,0.00,,,0.00,meteohub,2013-05-29 08:37:00,
2013-05-29 04:42:00,69.4,65.5,30.01,SW,224,5.0,7.0,87,0.00,,,0.00,meteohub,2013-05-29 08:42:00,
2013-05-29 04:47:00,69.4,65.5,30.01,SE,131,1.0,8.0,87,0.00,,,0.00,meteohub,2013-05-29 08:47:00,
2013-05-29 04:52:00,69.4,65.5,30.01,South,170,3.0,8.0,87,0.00,,,0.00,meteohub,2013-05-29 08:52:00,
2013-05-29 04:57:00,69.3,65.3,30.01,SW,221,3.0,8.0,87,0.00,,,0.00,meteohub,2013-05-29 08:57:00,
2013-05-29 05:02:00,69.3,65.3,30.01,SW,220,3.0,8.0,87,0.00,,,0.00,meteohub,2013-05-29 09:02:00,
2013-05-29 05:07:00,69.3,65.3,30.01,South,174,3.0,7.0,87,0.00,,,0.00,meteohub,2013-05-29 09:07:00,
2013-05-29 05:12:00,69.3,65.3,30.01,SSE,162,2.0,7.0,87,0.00,,,0.00,meteohub,2013-05-29 09:12:00,
2013-05-29 05:17:00,69.3,65.3,30.01,SSE,156,3.0,9.0,87,0.00,,,0.00,meteohub,2013-05-29 09:17:00,
2013-05-29 05:22:00,69.3,65.3,30.01,WSW,253,2.0,9.0,87,0.00,,,0.00,meteohub,2013-05-29 09:22:00,
2013-05-29 05:27:00,69.3,65.3,30.01,SSW,200,4.0,7.0,87,0.00,,,0.00,meteohub,2013-05-29 09:27:00,
2013-05-29 05:32:00,69.3,65.3,30.01,SE,127,1.0,7.0,87,0.00,,,0.00,meteohub,2013-05-29 09:32:00,
2013-05-29 05:37:00,69.3,65.3,30.01,SSW,195,3.0,7.0,87,0.00,,,0.00,meteohub,2013-05-29 09:37:00,
2013-05-29 05:42:00,69.3,65.3,30.01,SW,217,3.0,7.0,87,0.00,,,0.00,meteohub,2013-05-29 09:42:00,
2013-05-29 05:47:00,69.3,65.3,30.01,SSE,167,1.0,7.0,87,0.00,,,0.00,meteohub,2013-05-29 09:47:00,
2013-05-29 05:52:00,69.1,65.1,30.01,ESE,121,3.0,8.0,87,0.00,,,0.00,meteohub,2013-05-29 09:52:00,
2013-05-29 05:57:00,69.1,65.1,30.01,South,169,2.0,8.0,87,0.00,,,0.00,meteohub,2013-05-29 09:57:00,
2013-05-29 06:02:00,69.1,65.1,30.01,SSW,195,4.0,8.0,87,0.00,,,0.00,meteohub,2013-05-29 10:02:00,
2013-05-29 06:07:00,69.1,65.1,30.01,SW,215,1.0,8.0,87,0.00,,,0.00,meteohub,2013-05-29 10:07:00,
2013-05-29 06:12:00,69.1,65.1,30.02,SW,225,0.0,8.0,87,0.00,,,0.00,meteohub,2013-05-29 10:12:00,
2013-05-29 06:17:00,69.1,65.1,30.02,South,170,2.0,9.0,87,0.00,,,0.00,meteohub,2013-05-29 10:17:00,
2013-05-29 06:22:00,69.3,65.3,30.02,South,187,3.0,9.0,87,0.00,,,0.00,meteohub,2013-05-29 10:22:00,
2013-05-29 06:27:00,69.3,65.3,30.02,SSE,159,3.0,9.0,87,0.00,,,0.00,meteohub,2013-05-29 10:27:00,
2013-05-29 06:32:00,69.4,65.5,30.03,SW,235,4.0,7.0,87,0.00,,,0.00,meteohub,2013-05-29 10:32:00,
2013-05-29 06:37:00,69.4,65.5,30.03,SSW,209,4.0,7.0,87,0.00,,,0.00,meteohub,2013-05-29 10:37:00,
2013-05-29 06:43:00,69.6,65.3,30.02,SSE,155,1.0,8.0,86,0.00,,,0.00,meteohub,2013-05-29 10:43:00,
2013-05-29 06:48:00,69.6,65.3,30.02,SSW,200,4.0,8.0,86,0.00,,,0.00,meteohub,2013-05-29 10:48:00,
2013-05-29 06:53:00,69.8,65.5,30.02,SE,141,1.0,9.0,86,0.00,,,0.00,meteohub,2013-05-29 10:53:00,
2013-05-29 06:57:00,70.0,65.3,30.02,SSW,205,1.0,9.0,85,0.00,,,0.00,meteohub,2013-05-29 10:57:00,
2013-05-29 07:02:00,70.2,65.5,30.02,SSE,150,2.0,9.0,85,0.00,,,0.00,meteohub,2013-05-29 11:02:00,
2013-05-29 07:07:00,70.3,65.7,30.02,SW,221,3.0,7.0,85,0.00,,,0.00,meteohub,2013-05-29 11:07:00,
2013-05-29 07:12:00,70.5,65.8,30.03,SE,143,1.0,9.0,85,0.00,,,0.00,meteohub,2013-05-29 11:12:00,
2013-05-29 07:17:00,70.9,65.8,30.03,West,270,3.0,9.0,84,0.00,,,0.00,meteohub,2013-05-29 11:17:00,
2013-05-29 07:22:00,70.9,65.8,30.03,SSE,159,2.0,10.0,84,0.00,,,0.00,meteohub,2013-05-29 11:22:00,
2013-05-29 07:28:00,71.1,66.0,30.03,South,190,3.0,10.0,84,0.00,,,0.00,meteohub,2013-05-29 11:28:00,
2013-05-29 07:33:00,71.2,65.8,30.03,SW,219,2.0,10.0,83,0.00,,,0.00,meteohub,2013-05-29 11:33:00,
2013-05-29 07:38:00,71.4,66.0,30.03,WSW,239,4.0,9.0,83,0.00,,,0.00,meteohub,2013-05-29 11:38:00,
2013-05-29 07:43:00,71.6,66.2,30.03,South,181,2.0,9.0,83,0.00,,,0.00,meteohub,2013-05-29 11:43:00,
2013-05-29 07:48:00,71.8,66.0,30.03,South,186,2.0,6.0,82,0.00,,,0.00,meteohub,2013-05-29 11:48:00,
2013-05-29 07:53:00,72.0,66.2,30.03,SE,129,3.0,6.0,82,0.00,,,0.00,meteohub,2013-05-29 11:53:00,
2013-05-29 07:58:00,72.1,66.0,30.03,WSW,239,5.0,10.0,81,0.00,,,0.00,meteohub,2013-05-29 11:58:00,
2013-05-29 08:03:00,72.5,66.4,30.03,South,176,4.0,10.0,81,0.00,,,0.00,meteohub,2013-05-29 12:03:00,
2013-05-29 08:08:00,72.7,66.6,30.04,South,169,5.0,10.0,81,0.00,,,0.00,meteohub,2013-05-29 12:08:00,
2013-05-29 08:13:00,73.0,66.6,30.04,SSE,158,4.0,10.0,80,0.00,,,0.00,meteohub,2013-05-29 12:13:00,
2013-05-29 08:18:00,73.8,66.9,30.04,SSE,161,5.0,10.0,79,0.00,,,0.00,meteohub,2013-05-29 12:18:00,
2013-05-29 08:23:00,74.1,66.4,30.04,South,169,3.0,9.0,77,0.00,,,0.00,meteohub,2013-05-29 12:23:00,
2013-05-29 08:28:00,73.9,66.6,30.04,SW,222,4.0,9.0,78,0.00,,,0.00,meteohub,2013-05-29 12:28:00,
2013-05-29 08:33:00,73.9,66.6,30.04,SSE,158,3.0,7.0,78,0.00,,,0.00,meteohub,2013-05-29 12:33:00,
2013-05-29 08:38:00,74.3,66.9,30.05,SSW,193,3.0,7.0,78,0.00,,,0.00,meteohub,2013-05-29 12:38:00,
2013-05-29 08:43:00,74.7,66.9,30.05,SSW,195,2.0,7.0,77,0.00,,,0.00,meteohub,2013-05-29 12:43:00,
2013-05-29 08:48:00,75.0,66.9,30.05,SSW,200,5.0,6.0,76,0.00,,,0.00,meteohub,2013-05-29 12:48:00,
2013-05-29 08:53:00,75.6,67.5,30.05,South,179,5.0,7.0,76,0.00,,,0.00,meteohub,2013-05-29 12:53:00,
2013-05-29 08:58:00,75.9,67.1,30.05,SE,139,3.0,7.0,74,0.00,,,0.00,meteohub,2013-05-29 12:58:00,
2013-05-29 09:03:00,76.3,67.5,30.05,SSW,205,2.0,7.0,74,0.00,,,0.00,meteohub,2013-05-29 13:03:00,
2013-05-29 09:08:00,76.6,67.3,30.05,SSW,193,4.0,7.0,73,0.00,,,0.00,meteohub,2013-05-29 13:08:00,
2013-05-29 09:13:00,77.2,67.8,30.05,SSE,151,3.0,7.0,73,0.00,,,0.00,meteohub,2013-05-29 13:13:00,
2013-05-29 09:18:00,77.7,68.0,30.05,SSW,195,5.0,7.0,72,0.00,,,0.00,meteohub,2013-05-29 13:18:00,
2013-05-29 09:23:00,77.5,67.5,30.05,SSW,212,6.0,7.0,71,0.00,,,0.00,meteohub,2013-05-29 13:23:00,
2013-05-29 09:28:00,77.9,68.2,30.05,SE,146,4.0,8.0,72,0.00,,,0.00,meteohub,2013-05-29 13:28:00,
2013-05-29 09:33:00,78.4,68.2,30.05,SSW,201,2.0,8.0,71,0.00,,,0.00,meteohub,2013-05-29 13:33:00,
2013-05-29 09:38:00,78.6,68.0,30.05,SE,134,2.0,8.0,70,0.00,,,0.00,meteohub,2013-05-29 13:38:00,
2013-05-29 09:43:00,78.6,67.6,30.05,South,180,2.0,6.0,69,0.00,,,0.00,meteohub,2013-05-29 13:43:00,
2013-05-29 09:48:00,79.2,68.5,30.05,SW,219,2.0,7.0,70,0.00,,,0.00,meteohub,2013-05-29 13:48:00,
2013-05-29 09:54:00,79.7,68.2,30.05,SSE,166,3.0,8.0,68,0.00,,,0.00,meteohub,2013-05-29 13:54:00,
2013-05-29 09:59:00,80.8,68.7,30.04,SSE,163,4.0,8.0,67,0.00,,,0.00,meteohub,2013-05-29 13:59:00,
2013-05-29 10:04:00,81.0,68.5,30.04,SW,229,4.0,8.0,66,0.00,,,0.00,meteohub,2013-05-29 14:04:00,
2013-05-29 10:09:00,81.1,69.1,30.04,South,169,1.0,8.0,67,0.00,,,0.00,meteohub,2013-05-29 14:09:00,
2013-05-29 10:14:00,81.0,68.5,30.05,SW,218,1.0,8.0,66,0.00,,,0.00,meteohub,2013-05-29 14:14:00,
2013-05-29 10:19:00,81.0,68.9,30.05,SSW,201,6.0,9.0,67,0.00,,,0.00,meteohub,2013-05-29 14:19:00,
2013-05-29 10:24:00,80.8,68.4,30.05,SSW,205,4.0,9.0,66,0.00,,,0.00,meteohub,2013-05-29 14:24:00,
2013-05-29 10:29:00,81.0,68.5,30.05,SSE,166,4.0,9.0,66,0.00,,,0.00,meteohub,2013-05-29 14:29:00,
2013-05-29 10:34:00,80.8,68.7,30.05,SSW,194,7.0,7.0,67,0.00,,,0.00,meteohub,2013-05-29 14:34:00,
2013-05-29 10:39:00,81.1,69.1,30.05,SSE,156,3.0,7.0,67,0.00,,,0.00,meteohub,2013-05-29 14:39:00,
2013-05-29 10:44:00,81.3,69.3,30.05,SSW,194,5.0,7.0,67,0.00,,,0.00,meteohub,2013-05-29 14:44:00,
2013-05-29 10:49:00,81.7,69.3,30.05,SE,128,4.0,7.0,66,0.00,,,0.00,meteohub,2013-05-29 14:49:00,
2013-05-29 10:54:00,82.0,69.6,30.05,SSW,193,3.0,6.0,66,0.00,,,0.00,meteohub,2013-05-29 14:54:00,
2013-05-29 10:59:00,82.0,69.1,30.05,SSW,207,3.0,6.0,65,0.00,,,0.00,meteohub,2013-05-29 14:59:00,
2013-05-29 11:04:00,81.9,68.9,30.05,SSW,201,2.0,5.0,65,0.00,,,0.00,meteohub,2013-05-29 15:04:00,
2013-05-29 11:09:00,81.7,69.3,30.05,SSE,162,3.0,5.0,66,0.00,,,0.00,meteohub,2013-05-29 15:09:00,
2013-05-29 11:14:00,81.7,69.3,30.05,South,176,4.0,9.0,66,0.00,,,0.00,meteohub,2013-05-29 15:14:00,
2013-05-29 11:19:00,81.5,69.1,30.05,South,177,6.0,9.0,66,0.00,,,0.00,meteohub,2013-05-29 15:19:00,
2013-05-29 11:24:00,81.7,69.3,30.06,South,188,6.0,9.0,66,0.00,,,0.00,meteohub,2013-05-29 15:24:00,
2013-05-29 11:29:00,81.3,68.9,30.06,SW,219,4.0,7.0,66,0.00,,,0.00,meteohub,2013-05-29 15:29:00,
2013-05-29 11:34:00,81.1,69.1,30.06,South,188,2.0,8.0,67,0.00,,,0.00,meteohub,2013-05-29 15:34:00,
2013-05-29 11:39:00,81.3,69.3,30.06,South,179,4.0,8.0,67,0.00,,,0.00,meteohub,2013-05-29 15:39:00,
2013-05-29 11:44:00,81.9,69.4,30.06,South,190,4.0,8.0,66,0.00,,,0.00,meteohub,2013-05-29 15:44:00,
2013-05-29 11:49:00,82.6,69.6,30.06,SE,146,4.0,8.0,65,0.00,,,0.00,meteohub,2013-05-29 15:49:00,
2013-05-29 11:54:00,83.1,69.6,30.05,SE,124,3.0,8.0,64,0.00,,,0.00,meteohub,2013-05-29 15:54:00,
2013-05-29 11:59:00,83.7,70.2,30.05,SE,134,4.0,8.0,64,0.00,,,0.00,meteohub,2013-05-29 15:59:00,
2013-05-29 12:04:00,83.8,70.3,30.05,SE,131,1.0,9.0,64,0.00,,,0.00,meteohub,2013-05-29 16:04:00,
2013-05-29 12:09:00,84.6,70.2,30.05,ESE,111,2.0,9.0,62,0.00,,,0.00,meteohub,2013-05-29 16:09:00,
2013-05-29 12:14:00,84.6,70.5,30.05,East,79,2.0,9.0,63,0.00,,,0.00,meteohub,2013-05-29 16:14:00,
2013-05-29 12:19:00,84.7,70.3,30.05,South,179,5.0,6.0,62,0.00,,,0.00,meteohub,2013-05-29 16:19:00,
2013-05-29 12:24:00,84.7,70.7,30.05,NW,314,1.0,7.0,63,0.00,,,0.00,meteohub,2013-05-29 16:24:00,
2013-05-29 12:29:00,85.3,69.8,30.05,SE,141,3.0,7.0,60,0.00,,,0.00,meteohub,2013-05-29 16:29:00,
2013-05-29 12:34:00,85.6,69.6,30.05,SSW,204,3.0,7.0,59,0.00,,,0.00,meteohub,2013-05-29 16:34:00,
2013-05-29 12:39:00,86.7,69.1,30.05,SSW,203,3.0,9.0,56,0.00,,,0.00,meteohub,2013-05-29 16:39:00,
2013-05-29 12:44:00,87.3,69.6,30.05,SSW,198,9.0,9.0,56,0.00,,,0.00,meteohub,2013-05-29 16:44:00,
2013-05-29 12:49:00,87.4,69.3,30.04,South,190,2.0,9.0,55,0.00,,,0.00,meteohub,2013-05-29 16:49:00,
2013-05-29 12:54:00,88.0,68.2,30.04,SSW,196,4.0,9.0,52,0.00,,,0.00,meteohub,2013-05-29 16:54:00,
2013-05-29 12:59:00,88.3,68.0,30.04,SSE,150,3.0,9.0,51,0.00,,,0.00,meteohub,2013-05-29 16:59:00,
2013-05-29 13:04:00,88.5,66.4,30.04,SSW,211,8.0,9.0,48,0.00,,,0.00,meteohub,2013-05-29 17:04:00,
2013-05-29 13:10:00,88.7,66.6,30.04,West,262,3.0,9.0,48,0.00,,,0.00,meteohub,2013-05-29 17:10:00,
2013-05-29 13:15:00,88.9,67.3,30.04,South,188,2.0,9.0,49,0.00,,,0.00,meteohub,2013-05-29 17:15:00,
2013-05-29 13:20:00,89.6,67.8,30.04,SE,136,4.0,11.0,49,0.00,,,0.00,meteohub,2013-05-29 17:20:00,
2013-05-29 13:25:00,89.8,66.9,30.03,SE,143,2.0,11.0,47,0.00,,,0.00,meteohub,2013-05-29 17:25:00,
2013-05-29 13:30:00,89.8,65.7,30.04,East,93,3.0,11.0,45,0.00,,,0.00,meteohub,2013-05-29 17:30:00,
2013-05-29 13:35:00,90.0,66.4,30.03,SW,231,5.0,9.0,46,0.00,,,0.00,meteohub,2013-05-29 17:35:00,
2013-05-29 13:40:00,90.7,65.1,30.03,NNW,346,3.0,9.0,43,0.00,,,0.00,meteohub,2013-05-29 17:40:00,
2013-05-29 13:45:00,90.9,64.6,30.03,West,281,1.0,9.0,42,0.00,,,0.00,meteohub,2013-05-29 17:45:00,
2013-05-29 13:50:00,90.7,63.7,30.03,WSW,240,3.0,6.0,41,0.00,,,0.00,meteohub,2013-05-29 17:50:00,
2013-05-29 13:55:00,91.8,65.5,30.02,SSE,148,3.0,6.0,42,0.00,,,0.00,meteohub,2013-05-29 17:55:00,
2013-05-29 14:00:00,92.3,65.8,30.02,SSW,197,3.0,6.0,42,0.00,,,0.00,meteohub,2013-05-29 18:00:00,
2013-05-29 14:05:00,92.7,65.5,30.02,SSE,163,3.0,10.0,41,0.00,,,0.00,meteohub,2013-05-29 18:05:00,
2013-05-29 14:10:00,92.5,64.6,30.02,SW,236,6.0,10.0,40,0.00,,,0.00,meteohub,2013-05-29 18:10:00,
2013-05-29 14:15:00,92.1,64.4,30.02,SSW,193,1.0,10.0,40,0.00,,,0.00,meteohub,2013-05-29 18:15:00,
2013-05-29 14:20:00,92.5,63.9,30.02,WNW,283,2.0,12.0,39,0.00,,,0.00,meteohub,2013-05-29 18:20:00,
2013-05-29 14:25:00,92.5,64.6,30.02,West,264,2.0,12.0,40,0.00,,,0.00,meteohub,2013-05-29 18:25:00,
2013-05-29 14:30:00,92.7,64.8,30.02,SSE,165,2.0,9.0,40,0.00,,,0.00,meteohub,2013-05-29 18:30:00,
2013-05-29 14:35:00,92.8,64.2,30.02,West,266,1.0,8.0,39,0.00,,,0.00,meteohub,2013-05-29 18:35:00,
2013-05-29 14:40:00,93.2,63.9,30.02,SSW,197,6.0,11.0,38,0.00,,,0.00,meteohub,2013-05-29 18:40:00,
2013-05-29 14:45:00,92.7,63.3,30.02,NW,307,0.0,11.0,38,0.00,,,0.00,meteohub,2013-05-29 18:45:00,
2013-05-29 14:50:00,92.7,64.0,30.02,WSW,250,5.0,11.0,39,0.00,,,0.00,meteohub,2013-05-29 18:50:00,
2013-05-29 14:55:00,92.3,63.7,30.02,South,187,6.0,10.0,39,0.00,,,0.00,meteohub,2013-05-29 18:55:00,
2013-05-29 15:00:00,91.6,63.9,30.02,South,177,6.0,10.0,40,0.00,,,0.00,meteohub,2013-05-29 19:00:00,
2013-05-29 15:05:00,91.2,64.9,30.02,SSW,208,2.0,10.0,42,0.00,,,0.00,meteohub,2013-05-29 19:05:00,
2013-05-29 15:10:00,91.0,66.0,30.01,South,176,7.0,10.0,44,0.00,,,0.00,meteohub,2013-05-29 19:10:00,
2013-05-29 15:15:00,91.6,65.8,30.01,SW,233,4.0,10.0,43,0.00,,,0.00,meteohub,2013-05-29 19:15:00,
2013-05-29 15:20:00,91.2,65.7,30.02,SW,224,5.0,8.0,43,0.00,,,0.00,meteohub,2013-05-29 19:20:00,
2013-05-29 15:25:00,90.3,65.5,30.01,South,189,5.0,13.0,44,0.00,,,0.00,meteohub,2013-05-29 19:25:00,
2013-05-29 15:30:00,90.0,65.1,30.01,SSE,162,2.0,13.0,44,0.00,,,0.00,meteohub,2013-05-29 19:30:00,
2013-05-29 15:35:00,90.7,65.8,30.01,SE,131,2.0,13.0,44,0.00,,,0.00,meteohub,2013-05-29 19:35:00,
2013-05-29 15:40:00,90.9,65.8,30.01,South,183,3.0,9.0,44,0.00,,,0.00,meteohub,2013-05-29 19:40:00,
2013-05-29 15:45:00,91.6,66.6,30.01,SW,224,3.0,10.0,44,0.00,,,0.00,meteohub,2013-05-29 19:45:00,
2013-05-29 15:50:00,91.8,66.0,30.01,SE,127,3.0,10.0,43,0.00,,,0.00,meteohub,2013-05-29 19:50:00,
2013-05-29 15:55:00,91.6,65.8,30.01,SSE,162,3.0,9.0,43,0.00,,,0.00,meteohub,2013-05-29 19:55:00,
2013-05-29 16:00:00,91.4,67.1,30.01,SSW,212,7.0,12.0,45,0.00,,,0.00,meteohub,2013-05-29 20:00:00,
2013-05-29 16:05:00,91.6,65.8,30.01,South,188,7.0,12.0,43,0.00,,,0.00,meteohub,2013-05-29 20:05:00,
2013-05-29 16:10:00,91.0,66.7,30.01,SW,226,6.0,12.0,45,0.00,,,0.00,meteohub,2013-05-29 20:10:00,
2013-05-29 16:15:00,91.2,67.5,30.00,SSW,204,5.0,12.0,46,0.00,,,0.00,meteohub,2013-05-29 20:15:00,
2013-05-29 16:20:00,91.0,66.7,30.00,South,184,4.0,12.0,45,0.00,,,0.00,meteohub,2013-05-29 20:20:00,
2013-05-29 16:25:00,90.7,67.1,30.00,SSE,151,5.0,11.0,46,0.00,,,0.00,meteohub,2013-05-29 20:25:00,
2013-05-29 16:30:00,90.1,62.6,30.00,SSE,159,8.0,12.0,40,0.00,,,0.00,meteohub,2013-05-29 20:30:00,
2013-05-29 16:35:00,90.0,63.1,30.00,SSE,167,5.0,12.0,41,0.00,,,0.00,meteohub,2013-05-29 20:35:00,
2013-05-29 16:40:00,89.8,63.7,30.00,SSE,158,9.0,13.0,42,0.00,,,0.00,meteohub,2013-05-29 20:40:00,
2013-05-29 16:45:00,89.6,63.5,30.00,East,82,5.0,14.0,42,0.00,,,0.00,meteohub,2013-05-29 20:45:00,
2013-05-29 16:50:00,90.3,64.0,30.00,SW,224,12.0,14.0,42,0.00,,,0.00,meteohub,2013-05-29 20:50:00,
2013-05-29 16:55:00,90.5,64.2,30.00,SSE,162,6.0,12.0,42,0.00,,,0.00,meteohub,2013-05-29 20:55:00,
2013-05-29 17:00:00,90.3,63.5,30.00,SSE,150,1.0,16.0,41,0.00,,,0.00,meteohub,2013-05-29 21:00:00,
2013-05-29 17:05:00,90.1,63.3,30.00,SSE,166,10.0,16.0,41,0.00,,,0.00,meteohub,2013-05-29 21:05:00,
2013-05-29 17:10:00,89.8,63.7,30.00,South,188,3.0,16.0,42,0.00,,,0.00,meteohub,2013-05-29 21:10:00,
2013-05-29 17:15:00,90.0,63.9,30.00,ESE,110,6.0,12.0,42,0.00,,,0.00,meteohub,2013-05-29 21:15:00,
2013-05-29 17:20:00,90.0,64.4,29.99,South,191,5.0,13.0,43,0.00,,,0.00,meteohub,2013-05-29 21:20:00,
2013-05-29 17:25:00,90.1,64.6,29.99,SSW,198,6.0,13.0,43,0.00,,,0.00,meteohub,2013-05-29 21:25:00,
2013-05-29 17:30:00,90.3,64.0,30.00,South,169,4.0,14.0,42,0.00,,,0.00,meteohub,2013-05-29 21:30:00,
2013-05-29 17:35:00,90.1,63.9,29.99,South,181,2.0,14.0,42,0.00,,,0.00,meteohub,2013-05-29 21:35:00,
2013-05-29 17:41:00,90.3,64.0,29.99,SE,131,1.0,14.0,42,0.00,,,0.00,meteohub,2013-05-29 21:41:00,
2013-05-29 17:46:00,90.3,64.0,29.99,South,188,10.0,11.0,42,0.00,,,0.00,meteohub,2013-05-29 21:46:00,
2013-05-29 17:51:00,90.1,64.6,29.99,South,179,5.0,13.0,43,0.00,,,0.00,meteohub,2013-05-29 21:51:00,
2013-05-29 17:56:00,90.1,64.6,30.00,SSW,210,7.0,13.0,43,0.00,,,0.00,meteohub,2013-05-29 21:56:00,
2013-05-29 18:01:00,90.0,64.4,30.00,South,183,6.0,12.0,43,0.00,,,0.00,meteohub,2013-05-29 22:01:00,
2013-05-29 18:06:00,90.0,64.4,29.99,SSW,211,7.0,10.0,43,0.00,,,0.00,meteohub,2013-05-29 22:06:00,
2013-05-29 18:11:00,89.8,64.9,29.99,SSE,156,4.0,10.0,44,0.00,,,0.00,meteohub,2013-05-29 22:11:00,
2013-05-29 18:16:00,90.0,65.1,29.99,SW,226,6.0,10.0,44,0.00,,,0.00,meteohub,2013-05-29 22:16:00,
2013-05-29 18:21:00,89.8,64.9,29.99,SSW,200,3.0,10.0,44,0.00,,,0.00,meteohub,2013-05-29 22:21:00,
2013-05-29 18:26:00,89.4,64.6,30.00,SE,124,6.0,9.0,44,0.00,,,0.00,meteohub,2013-05-29 22:26:00,
2013-05-29 18:31:00,89.2,65.1,29.99,South,187,8.0,11.0,45,0.00,,,0.00,meteohub,2013-05-29 22:31:00,
2013-05-29 18:36:00,89.1,65.7,30.00,SSE,159,5.0,11.0,46,0.00,,,0.00,meteohub,2013-05-29 22:36:00,
2013-05-29 18:41:00,89.1,65.7,30.00,South,179,6.0,11.0,46,0.00,,,0.00,meteohub,2013-05-29 22:41:00,
2013-05-29 18:46:00,88.7,65.3,30.00,WSW,248,3.0,10.0,46,0.00,,,0.00,meteohub,2013-05-29 22:46:00,
2013-05-29 18:51:00,88.5,65.7,30.00,SSE,166,4.0,10.0,47,0.00,,,0.00,meteohub,2013-05-29 22:51:00,
2013-05-29 18:56:00,88.2,65.3,30.00,SW,222,4.0,10.0,47,0.00,,,0.00,meteohub,2013-05-29 22:56:00,
2013-05-29 19:01:00,87.8,65.7,30.00,SSE,166,0.0,10.0,48,0.00,,,0.00,meteohub,2013-05-29 23:01:00,
2013-05-29 19:06:00,87.8,65.7,30.00,SE,134,2.0,10.0,48,0.00,,,0.00,meteohub,2013-05-29 23:06:00,
2013-05-29 19:11:00,88.0,65.8,30.00,WSW,239,6.0,10.0,48,0.00,,,0.00,meteohub,2013-05-29 23:11:00,
2013-05-29 19:16:00,88.0,65.8,30.00,SE,139,0.0,11.0,48,0.00,,,0.00,meteohub,2013-05-29 23:16:00,
2013-05-29 19:21:00,88.0,65.8,30.00,WSW,243,5.0,11.0,48,0.00,,,0.00,meteohub,2013-05-29 23:21:00,
2013-05-29 19:26:00,88.0,65.8,30.00,South,170,2.0,11.0,48,0.00,,,0.00,meteohub,2013-05-29 23:26:00,
2013-05-29 19:31:00,87.8,65.7,30.00,SE,136,3.0,7.0,48,0.00,,,0.00,meteohub,2013-05-29 23:31:00,
2013-05-29 19:36:00,87.4,65.8,30.00,South,186,2.0,7.0,49,0.00,,,0.00,meteohub,2013-05-29 23:36:00,
2013-05-29 19:41:00,87.3,65.8,30.00,SE,138,4.0,7.0,49,0.00,,,0.00,meteohub,2013-05-29 23:41:00,
2013-05-29 19:46:00,86.9,66.0,30.00,SSW,201,2.0,7.0,50,0.00,,,0.00,meteohub,2013-05-29 23:46:00,
2013-05-29 19:51:00,86.5,65.7,30.00,SW,218,3.0,7.0,50,0.00,,,0.00,meteohub,2013-05-29 23:51:00,
2013-05-29 19:56:00,86.4,66.0,30.00,SSE,152,1.0,8.0,51,0.00,,,0.00,meteohub,2013-05-29 23:56:00,
2013-05-29 20:01:00,86.0,66.4,30.00,SSE,149,0.0,8.0,52,0.00,,,0.00,meteohub,2013-05-30 00:01:00,
2013-05-29 20:06:00,85.6,66.0,30.00,SW,217,1.0,8.0,52,0.00,,,0.00,meteohub,2013-05-30 00:06:00,
2013-05-29 20:11:00,85.5,66.4,30.00,SSW,197,5.0,5.0,53,0.00,,,0.00,meteohub,2013-05-30 00:11:00,
2013-05-29 20:16:00,85.3,66.7,30.00,SSW,212,1.0,8.0,54,0.00,,,0.00,meteohub,2013-05-30 00:16:00,
2013-05-29 20:21:00,84.9,66.4,30.00,South,186,5.0,8.0,54,0.00,,,0.00,meteohub,2013-05-30 00:21:00,
2013-05-29 20:26:00,84.7,66.2,30.00,SSW,196,6.0,8.0,54,0.00,,,0.00,meteohub,2013-05-30 00:26:00,
2013-05-29 20:31:00,84.6,66.0,30.00,SW,215,3.0,6.0,54,0.00,,,0.00,meteohub,2013-05-30 00:31:00,
2013-05-29 20:36:00,84.6,66.6,30.00,SSW,201,4.0,7.0,55,0.00,,,0.00,meteohub,2013-05-30 00:36:00,
2013-05-29 20:41:00,84.4,66.4,30.00,South,188,3.0,7.0,55,0.00,,,0.00,meteohub,2013-05-30 00:41:00,
2013-05-29 20:46:00,84.0,66.2,30.00,SW,218,5.0,7.0,55,0.00,,,0.00,meteohub,2013-05-30 00:46:00,
2013-05-29 20:51:00,83.8,66.4,30.00,SSW,207,3.0,7.0,56,0.00,,,0.00,meteohub,2013-05-30 00:51:00,
2013-05-29 20:56:00,83.8,66.4,30.00,SSE,168,3.0,7.0,56,0.00,,,0.00,meteohub,2013-05-30 00:56:00,
2013-05-29 21:01:00,83.7,66.4,30.00,SSW,200,2.0,7.0,56,0.00,,,0.00,meteohub,2013-05-30 01:01:00,
2013-05-29 21:02:00,83.7,66.4,30.00,SW,222,5.0,7.0,56,0.00,,,0.00,meteohub,2013-05-30 01:02:00,
2013-05-29 21:07:00,83.5,66.2,30.00,WSW,239,3.0,5.0,56,0.00,,,0.00,meteohub,2013-05-30 01:07:00,
2013-05-29 21:12:00,83.3,66.6,30.00,South,187,1.0,5.0,57,0.00,,,0.00,meteohub,2013-05-30 01:12:00,
2013-05-29 21:17:00,83.1,66.4,30.00,SSE,166,1.0,6.0,57,0.00,,,0.00,meteohub,2013-05-30 01:17:00,
2013-05-29 21:22:00,82.9,66.2,30.00,SSE,159,4.0,6.0,57,0.00,,,0.00,meteohub,2013-05-30 01:22:00,
2013-05-29 21:27:00,82.8,66.0,30.00,SSW,205,5.0,6.0,57,0.00,,,0.00,meteohub,2013-05-30 01:27:00,
2013-05-29 21:32:00,82.8,66.6,30.00,SSE,159,1.0,7.0,58,0.00,,,0.00,meteohub,2013-05-30 01:32:00,
2013-05-29 21:37:00,82.6,66.4,30.01,SSW,195,0.0,7.0,58,0.00,,,0.00,meteohub,2013-05-30 01:37:00,
2013-05-29 21:42:00,82.4,66.6,30.01,ESE,120,1.0,7.0,59,0.00,,,0.00,meteohub,2013-05-30 01:42:00,
2013-05-29 21:47:00,82.2,66.4,30.01,SSE,161,2.0,4.0,59,0.00,,,0.00,meteohub,2013-05-30 01:47:00,
2013-05-29 21:52:00,81.9,66.6,30.01,South,169,0.0,5.0,60,0.00,,,0.00,meteohub,2013-05-30 01:52:00,
2013-05-29 21:57:00,81.9,66.6,30.01,SSE,158,0.0,5.0,60,0.00,,,0.00,meteohub,2013-05-30 01:57:00,
2013-05-29 22:02:00,81.7,66.4,30.01,South,191,3.0,5.0,60,0.00,,,0.00,meteohub,2013-05-30 02:02:00,
2013-05-29 22:07:00,81.7,66.4,30.01,SSE,158,0.0,4.0,60,0.00,,,0.00,meteohub,2013-05-30 02:07:00,
2013-05-29 22:12:00,81.7,66.9,30.01,WSW,257,3.0,6.0,61,0.00,,,0.00,meteohub,2013-05-30 02:12:00,
2013-05-29 22:17:00,81.5,66.7,30.02,WSW,239,3.0,8.0,61,0.00,,,0.00,meteohub,2013-05-30 02:17:00,
2013-05-29 22:22:00,81.3,66.6,30.02,South,173,2.0,8.0,61,0.00,,,0.00,meteohub,2013-05-30 02:22:00,
2013-05-29 22:27:00,81.1,66.9,30.02,WSW,241,2.0,8.0,62,0.00,,,0.00,meteohub,2013-05-30 02:27:00,
2013-05-29 22:32:00,81.1,66.9,30.02,SSW,208,3.0,11.0,62,0.00,,,0.00,meteohub,2013-05-30 02:32:00,
2013-05-29 22:37:00,81.0,66.7,30.02,SSW,201,0.0,11.0,62,0.00,,,0.00,meteohub,2013-05-30 02:37:00,
2013-05-29 22:42:00,81.0,67.1,30.02,South,186,5.0,11.0,63,0.00,,,0.00,meteohub,2013-05-30 02:42:00,
2013-05-29 22:47:00,80.8,66.9,30.02,SE,135,2.0,7.0,63,0.00,,,0.00,meteohub,2013-05-30 02:47:00,
2013-05-29 22:52:00,80.8,66.9,30.03,ESE,123,1.0,7.0,63,0.00,,,0.00,meteohub,2013-05-30 02:52:00,
2013-05-29 22:57:00,80.6,66.9,30.03,SSE,166,1.0,7.0,63,0.00,,,0.00,meteohub,2013-05-30 02:57:00,
2013-05-29 23:02:00,80.4,67.1,30.03,South,172,4.0,7.0,64,0.00,,,0.00,meteohub,2013-05-30 03:02:00,
2013-05-29 23:07:00,80.2,66.9,30.02,SSE,149,2.0,9.0,64,0.00,,,0.00,meteohub,2013-05-30 03:07:00,
2013-05-29 23:12:00,80.1,66.7,30.02,SSW,200,3.0,9.0,64,0.00,,,0.00,meteohub,2013-05-30 03:12:00,
2013-05-29 23:17:00,80.1,67.3,30.02,SSW,203,2.0,9.0,65,0.00,,,0.00,meteohub,2013-05-30 03:17:00,
2013-05-29 23:22:00,79.9,67.1,30.03,SE,128,1.0,6.0,65,0.00,,,0.00,meteohub,2013-05-30 03:22:00,
2013-05-29 23:27:00,79.7,66.9,30.03,SSW,211,2.0,7.0,65,0.00,,,0.00,meteohub,2013-05-30 03:27:00,
2013-05-29 23:32:00,79.5,66.7,30.03,SSW,210,1.0,9.0,65,0.00,,,0.00,meteohub,2013-05-30 03:32:00,
2013-05-29 23:37:00,79.5,66.7,30.03,SSW,207,3.0,10.0,65,0.00,,,0.00,meteohub,2013-05-30 03:37:00,
2013-05-29 23:42:00,79.3,66.9,30.03,SSW,210,3.0,10.0,66,0.00,,,0.00,meteohub,2013-05-30 03:42:00,
2013-05-29 23:47:00,79.2,66.7,30.03,South,183,3.0,7.0,66,0.00,,,0.00,meteohub,2013-05-30 03:47:00,
2013-05-29 23:52:00,79.2,66.7,30.03,SSW,211,3.0,8.0,66,0.00,,,0.00,meteohub,2013-05-30 03:52:00,
2013-05-29 23:57:00,79.0,66.6,30.03,SW,226,1.0,8.0,66,0.00,,,0.00,meteohub,2013-05-30 03:57:00,